Time;durP1;ratioP1;P1;durP2;ratioP2;P2;SDS_P1;SDS_P2;PMS_P1;PMS_P2;Temp;Humidity;BMP_temperature;BMP_pressure;BME280_temperature;BME280_humidity;BME280_pressure;Samples;Min_cycle;Max_cycle;Signal;HPM_P1;HPM_P2
2021/03/04 00:00:00;;;;;;;;;;;;;;;7.97;59.62;100505.44;4416325;32;20001;-96
2021/03/04 00:02:25;;;;;;;;;;;;;;;7.69;59.62;100503.09;4415443;32;19997;-96
2021/03/04 00:04:50;;;;;;;;;;;;;;;7.89;59.62;100495.16;4428104;32;20553;-95
2021/03/04 00:07:15;;;;;;;;;;;;;;;7.99;59.63;100499.38;4415345;32;20008;-95
2021/03/04 00:09:40;;;;;;;;;;;;;;;7.62;59.61;100491.06;4416704;32;19993;-95
2021/03/04 00:12:06;;;;;;;;;;;;;;;7.49;59.60;100486.00;4415589;32;19996;-95
2021/03/04 00:14:31;;;;;;;;;;;;;;;7.38;59.59;100481.75;4415648;32;20316;-95
2021/03/04 00:16:56;;;;;;;;;;;;;;;7.43;59.60;100476.53;4415570;32;20003;-94
2021/03/04 00:19:22;;;;;;;;;;;;;;;7.46;59.61;100476.50;4415346;32;20268;-95
2021/03/04 00:21:47;;;;;;;;;;;;;;;7.41;59.60;100473.09;4415767;32;19977;-95
2021/03/04 00:24:12;;;;;;;;;;;;;;;7.53;59.60;100467.81;4414160;32;20246;-94
2021/03/04 00:26:38;;;;;;;;;;;;;;;7.42;59.60;100466.19;4415210;32;20012;-95
2021/03/04 00:29:03;;;;;;;;;;;;;;;7.28;59.59;100461.97;4415576;32;19992;-95
2021/03/04 00:31:31;;;;;;;;;;;;;;;7.39;59.60;100457.56;4415216;32;20019;-96
2021/03/04 00:33:56;;;;;;;;;;;;;;;7.37;59.59;100450.69;4416441;32;20341;-95
2021/03/04 00:36:21;;;;;;;;;;;;;;;7.06;59.58;100455.22;4414876;32;20023;-96
2021/03/04 00:38:47;;;;;;;;;;;;;;;7.13;59.58;100454.31;4415987;32;20313;-94
2021/03/04 00:41:12;;;;;;;;;;;;;;;7.28;59.59;100442.97;4415202;32;19999;-95
2021/03/04 00:43:37;;;;;;;;;;;;;;;7.34;59.59;100436.03;4415224;32;19968;-93
2021/03/04 00:46:02;;;;;;;;;;;;;;;7.17;59.58;100440.47;4415242;32;20034;-95
2021/03/04 00:48:28;;;;;;;;;;;;;;;7.24;59.58;100436.97;4415220;32;20026;-95
2021/03/04 00:50:53;;;;;;;;;;;;;;;7.40;59.60;100437.72;4415240;32;19984;-95
2021/03/04 00:53:18;;;;;;;;;;;;;;;7.49;59.60;100436.78;4414861;32;20000;-95
2021/03/04 00:55:43;;;;;;;;;;;;;;;7.41;59.60;100426.47;4415003;32;20001;-95
2021/03/04 00:58:09;;;;;;;;;;;;;;;7.43;59.60;100427.31;4415804;32;20020;-95
2021/03/04 01:00:34;;;;;;;;;;;;;;;7.55;59.61;100418.56;4416409;32;19980;-95
2021/03/04 01:02:59;;;;;;;;;;;;;;;7.50;59.60;100420.34;4415634;32;20291;-96
2021/03/04 01:05:25;;;;;;;;;;;;;;;7.59;59.60;100412.53;4415688;32;20001;-95
2021/03/04 01:07:50;;;;;;;;;;;;;;;7.60;59.61;100409.06;4414980;32;20258;-94
2021/03/04 01:10:16;;;;;;;;;;;;;;;7.37;59.59;100409.25;4414584;32;20453;-95
2021/03/04 01:12:42;;;;;;;;;;;;;;;7.36;59.59;100407.53;4414769;32;20321;-94
2021/03/04 01:15:08;;;;;;;;;;;;;;;7.37;59.60;100397.16;4414435;32;20023;-93
2021/03/04 01:17:33;;;;;;;;;;;;;;;7.23;59.59;100405.91;4427703;32;19989;-94
2021/03/04 01:19:58;;;;;;;;;;;;;;;7.41;59.60;100403.19;4414522;32;20020;-92
2021/03/04 01:22:23;;;;;;;;;;;;;;;7.38;59.59;100391.12;4415015;32;19991;-93
2021/03/04 01:24:49;;;;;;;;;;;;;;;7.59;59.60;100396.97;4415024;32;20019;-94
2021/03/04 01:27:14;;;;;;;;;;;;;;;7.68;59.61;100392.56;4414343;32;23113;-93
2021/03/04 01:29:39;;;;;;;;;;;;;;;7.95;59.63;100381.03;4414539;32;22333;-95
2021/03/04 01:32:05;;;;;;;;;;;;;;;7.93;59.63;100379.34;4414691;32;20003;-95
2021/03/04 01:34:30;;;;;;;;;;;;;;;7.85;59.62;100375.97;4414535;32;19981;-95
2021/03/04 01:36:55;;;;;;;;;;;;;;;7.60;59.60;100373.63;4414729;32;19980;-95
2021/03/04 01:39:20;;;;;;;;;;;;;;;7.77;59.62;100372.59;4414583;32;20016;-93
2021/03/04 01:41:45;;;;;;;;;;;;;;;7.63;59.61;100367.56;4414517;32;24430;-93
2021/03/04 01:44:11;;;;;;;;;;;;;;;7.57;59.61;100368.50;4413910;32;26971;-94
2021/03/04 01:46:36;;;;;;;;;;;;;;;7.49;59.61;100362.50;4414567;32;21577;-95
2021/03/04 01:49:01;;;;;;;;;;;;;;;7.35;59.59;100359.22;4414773;32;19984;-95
2021/03/04 01:51:26;;;;;;;;;;;;;;;7.62;59.61;100360.66;4415860;32;20001;-95
2021/03/04 01:53:52;;;;;;;;;;;;;;;7.49;59.60;100353.88;4415787;32;20464;-95
2021/03/04 01:56:17;;;;;;;;;;;;;;;7.62;59.61;100356.34;4428562;32;20344;-96
2021/03/04 01:58:42;;;;;;;;;;;;;;;7.47;59.59;100340.09;4416651;32;20030;-96
2021/03/04 02:04:10;;;;;;;;;;;;;;;7.47;59.61;100338.34;4440495;32;20660;-94
2021/03/04 02:06:40;;;;;;;;;;;;;;;7.64;59.61;100331.28;4414205;32;19989;-94
2021/03/04 02:09:05;;;;;;;;;;;;;;;7.50;59.60;100335.72;4414389;32;19981;-91
2021/03/04 02:11:35;;;;;;;;;;;;;;;7.54;59.60;100333.97;4414177;32;20105;-93
2021/03/04 02:14:03;;;;;;;;;;;;;;;7.50;59.60;100334.88;4414308;32;19996;-93
2021/03/04 02:16:35;;;;;;;;;;;;;;;7.30;59.59;100330.75;4426896;32;19993;-93
2021/03/04 02:19:02;;;;;;;;;;;;;;;7.41;59.60;100319.44;4414542;32;19992;-94
2021/03/04 02:21:36;;;;;;;;;;;;;;;7.54;59.61;100324.47;4414376;32;20007;-92
2021/03/04 02:24:04;;;;;;;;;;;;;;;7.44;59.60;100319.41;4414697;32;19980;-93
2021/03/04 02:26:47;;;;;;;;;;;;;;;7.45;59.60;100313.34;4427367;32;19952;-92
2021/03/04 02:29:14;;;;;;;;;;;;;;;7.37;59.59;100314.28;4414176;32;20759;-93
2021/03/04 02:31:39;;;;;;;;;;;;;;;7.26;59.59;100312.66;4413784;32;19973;-92
2021/03/04 02:34:05;;;;;;;;;;;;;;;7.32;59.60;100315.19;4413592;32;20005;-92
2021/03/04 02:36:32;;;;;;;;;;;;;;;7.22;59.58;100314.44;4426273;32;20000;-92
2021/03/04 02:38:57;;;;;;;;;;;;;;;7.31;59.59;100313.47;4413629;32;19985;-92
2021/03/04 02:41:23;;;;;;;;;;;;;;;7.44;59.60;100306.44;4413449;32;19972;-91
2021/03/04 02:43:48;;;;;;;;;;;;;;;7.24;59.58;100306.66;4413319;32;20007;-92
2021/03/04 02:46:13;;;;;;;;;;;;;;;7.21;59.59;100309.25;4426778;32;19995;-92
2021/03/04 02:48:41;;;;;;;;;;;;;;;7.04;59.58;100309.41;4414260;32;20024;-90
2021/03/04 02:51:07;;;;;;;;;;;;;;;7.22;59.59;100304.06;4414213;32;20026;-94
2021/03/04 02:53:32;;;;;;;;;;;;;;;7.27;59.59;100306.59;4414236;32;20008;-93
2021/03/04 02:55:57;;;;;;;;;;;;;;;7.20;59.58;100300.63;4412266;32;19984;-93
2021/03/04 02:58:23;;;;;;;;;;;;;;;7.15;59.58;100306.75;4413742;32;20019;-93
2021/03/04 03:00:48;;;;;;;;;;;;;;;6.81;59.56;100307.00;4413352;32;20259;-92
2021/03/04 03:03:13;;;;;;;;;;;;;;;7.04;59.58;100304.22;4413048;32;20012;-94
2021/03/04 03:05:40;;;;;;;;;;;;;;;6.92;59.56;100294.00;4414374;32;20044;-94
2021/03/04 03:08:05;;;;;;;;;;;;;;;7.03;59.58;100293.03;4413461;32;20281;-93
2021/03/04 03:10:31;;;;;;;;;;;;;;;7.07;59.57;100288.66;4412819;32;19973;-91
2021/03/04 03:13:00;;;;;;;;;;;;;;;7.17;59.58;100290.31;4412994;32;20001;-93
2021/03/04 03:15:26;;;;;;;;;;;;;;;7.27;59.59;100289.34;4426462;32;20018;-92
2021/03/04 03:17:51;;;;;;;;;;;;;;;7.18;59.59;100280.81;4413264;32;20253;-94
2021/03/04 03:20:17;;;;;;;;;;;;;;;7.09;59.58;100287.78;4413671;32;19997;-93
2021/03/04 03:22:42;;;;;;;;;;;;;;;6.96;59.57;100282.75;4413719;32;19988;-93
2021/03/04 03:25:08;;;;;;;;;;;;;;;6.78;59.56;100276.84;4413255;32;20018;-91
2021/03/04 03:27:33;;;;;;;;;;;;;;;6.77;59.56;100275.13;4413180;32;19976;-93
2021/03/04 03:29:59;;;;;;;;;;;;;;;6.74;59.56;100274.31;4413245;32;19981;-94
2021/03/04 03:32:24;;;;;;;;;;;;;;;6.72;59.56;100276.91;4414174;32;20009;-96
2021/03/04 03:34:50;;;;;;;;;;;;;;;6.90;59.57;100270.72;4415879;32;20622;-96
2021/03/04 03:37:15;;;;;;;;;;;;;;;6.86;59.56;100265.56;4415309;32;20018;-96
2021/03/04 03:39:40;;;;;;;;;;;;;;;6.87;59.56;100260.41;4415742;32;19992;-96
2021/03/04 03:42:06;;;;;;;;;;;;;;;6.92;59.57;100261.22;4414480;32;20363;-96
2021/03/04 03:44:31;;;;;;;;;;;;;;;6.95;59.57;100261.19;4415033;32;20028;-95
2021/03/04 03:46:56;;;;;;;;;;;;;;;7.02;59.58;100262.84;4415846;32;20000;-96
2021/03/04 03:49:21;;;;;;;;;;;;;;;7.08;59.57;100260.19;4414205;32;19965;-96
2021/03/04 03:51:54;;;;;;;;;;;;;;;7.17;59.58;100260.97;4433015;32;19993;-96
2021/03/04 03:54:24;;;;;;;;;;;;;;;7.23;59.58;100258.31;4434791;32;19984;-96
2021/03/04 03:56:50;;;;;;;;;;;;;;;7.20;59.58;100263.53;4432071;32;20001;-96
2021/03/04 03:59:15;;;;;;;;;;;;;;;7.24;59.58;100262.62;4417554;32;19996;-96
2021/03/04 04:01:47;;;;;;;;;;;;;;;7.25;59.60;100264.34;4421178;32;19988;-96
2021/03/04 04:04:13;;;;;;;;;;;;;;;7.30;59.59;100255.66;4448632;32;19957;-96
2021/03/04 04:06:39;;;;;;;;;;;;;;;7.32;59.60;100246.12;4421392;32;20005;-96
2021/03/04 04:09:04;;;;;;;;;;;;;;;7.15;59.58;100244.59;4432605;32;20031;-96
2021/03/04 04:11:31;;;;;;;;;;;;;;;7.06;59.58;100242.94;4420286;32;20031;-96
2021/03/04 04:13:57;;;;;;;;;;;;;;;7.15;59.58;100240.28;4432103;32;19993;-95
2021/03/04 04:16:22;;;;;;;;;;;;;;;7.28;59.58;100235.81;4417712;32;19999;-96
2021/03/04 04:18:48;;;;;;;;;;;;;;;7.13;59.58;100241.19;4416307;32;19976;-96
2021/03/04 04:21:13;;;;;;;;;;;;;;;7.15;59.58;100235.12;4418127;32;20011;-96
2021/03/04 04:23:39;;;;;;;;;;;;;;;7.25;59.59;100228.94;4417017;32;19977;-95
2021/03/04 04:26:04;;;;;;;;;;;;;;;7.23;59.58;100232.44;4416098;32;19984;-95
2021/03/04 04:28:29;;;;;;;;;;;;;;;7.22;59.58;100223.81;4415978;32;20005;-96
2021/03/04 04:30:57;;;;;;;;;;;;;;;7.30;59.59;100226.31;4416079;32;19992;-96
2021/03/04 04:33:23;;;;;;;;;;;;;;;7.30;59.59;100218.53;4443001;32;20281;-96
2021/03/04 04:35:51;;;;;;;;;;;;;;;7.50;59.60;100215.72;4414675;32;19989;-96
2021/03/04 04:38:17;;;;;;;;;;;;;;;7.45;59.59;100214.91;4414655;32;20329;-96
2021/03/04 04:40:42;;;;;;;;;;;;;;;7.50;59.60;100213.13;4413839;32;20007;-94
2021/03/04 04:43:07;;;;;;;;;;;;;;;7.30;59.59;100213.34;4412942;32;20015;-94
2021/03/04 04:45:32;;;;;;;;;;;;;;;7.21;59.58;100205.69;4413847;32;19985;-95
2021/03/04 04:47:58;;;;;;;;;;;;;;;7.21;59.58;100206.56;4413007;32;20583;-94
2021/03/04 04:50:23;;;;;;;;;;;;;;;7.31;59.58;100210.75;4413499;32;20037;-94
2021/03/04 04:52:48;;;;;;;;;;;;;;;7.27;59.59;100205.63;4412772;32;20031;-93
2021/03/04 04:55:13;;;;;;;;;;;;;;;7.28;59.58;100205.59;4412087;32;20040;-94
2021/03/04 04:57:39;;;;;;;;;;;;;;;7.25;59.59;100208.22;4412568;32;20001;-93
2021/03/04 05:00:04;;;;;;;;;;;;;;;7.18;59.59;100203.16;4424363;32;20004;-92
2021/03/04 05:02:33;;;;;;;;;;;;;;;7.25;59.59;100195.28;4412588;32;19989;-96
2021/03/04 05:05:01;;;;;;;;;;;;;;;7.28;59.58;100184.88;4416775;32;20044;-96
2021/03/04 05:07:26;;;;;;;;;;;;;;;7.26;59.59;100190.97;4424365;32;19985;-93
2021/03/04 05:09:52;;;;;;;;;;;;;;;7.33;59.59;100182.25;4410207;32;30509;-94
2021/03/04 05:12:17;;;;;;;;;;;;;;;7.35;59.59;100185.69;4411345;32;20020;-94
2021/03/04 05:14:42;;;;;;;;;;;;;;;7.35;59.59;100191.72;4424780;32;19981;-94
2021/03/04 05:17:07;;;;;;;;;;;;;;;7.29;59.58;100181.44;4409902;32;31406;-93
2021/03/04 05:19:33;;;;;;;;;;;;;;;7.32;59.60;100180.53;4410022;32;20026;-92
2021/03/04 05:21:58;;;;;;;;;;;;;;;7.35;59.59;100173.59;4410871;32;22818;-91
2021/03/04 05:24:24;;;;;;;;;;;;;;;7.26;59.59;100171.09;4410578;32;20289;-92
2021/03/04 05:26:49;;;;;;;;;;;;;;;7.24;59.58;100177.19;4410983;32;19973;-93
2021/03/04 05:29:14;;;;;;;;;;;;;;;7.30;59.59;100162.41;4423613;32;19993;-93
2021/03/04 05:31:39;;;;;;;;;;;;;;;7.12;59.58;100162.66;4410783;32;20039;-93
2021/03/04 05:34:05;;;;;;;;;;;;;;;7.07;59.57;100159.25;4410506;32;23702;-93
2021/03/04 05:36:30;;;;;;;;;;;;;;;6.97;59.57;100158.50;4410139;32;25853;-92
2021/03/04 05:38:55;;;;;;;;;;;;;;;6.94;59.57;100150.78;4410520;32;19988;-92
2021/03/04 05:41:21;;;;;;;;;;;;;;;6.99;59.57;100151.56;4397830;32;19996;-92
2021/03/04 05:43:47;;;;;;;;;;;;;;;7.06;59.57;100154.94;4397312;32;19978;-92
2021/03/04 05:46:12;;;;;;;;;;;;;;;7.09;59.57;100147.12;4410167;32;20007;-92
2021/03/04 05:48:37;;;;;;;;;;;;;;;7.09;59.58;100148.00;4397323;32;20463;-92
2021/03/04 05:51:03;;;;;;;;;;;;;;;7.09;59.58;100150.59;4396472;32;20019;-91
2021/03/04 05:53:28;;;;;;;;;;;;;;;7.11;59.58;100148.00;4396699;32;19992;-92
2021/03/04 05:55:53;;;;;;;;;;;;;;;7.25;59.59;100153.84;4397206;32;19986;-93
2021/03/04 05:58:18;;;;;;;;;;;;;;;7.26;59.59;100150.38;4397534;32;20007;-91
2021/03/04 06:00:44;;;;;;;;;;;;;;;7.28;59.59;100148.63;4397222;32;20000;-92
2021/03/04 06:03:09;;;;;;;;;;;;;;;7.24;59.58;100156.47;4397366;32;20017;-93
2021/03/04 06:05:35;;;;;;;;;;;;;;;7.12;59.58;100156.63;4397128;32;19973;-92
2021/03/04 06:08:03;;;;;;;;;;;;;;;7.09;59.57;100157.50;4397440;32;20041;-92
2021/03/04 06:10:29;;;;;;;;;;;;;;;7.20;59.58;100158.25;4397234;32;20061;-92
2021/03/04 06:12:54;;;;;;;;;;;;;;;7.13;59.58;100153.16;4397057;32;20258;-91
2021/03/04 06:15:21;;;;;;;;;;;;;;;7.19;59.58;100146.19;4396709;32;20019;-92
2021/03/04 06:17:52;;;;;;;;;;;;;;;7.30;59.58;100144.28;4397140;32;20012;-91
2021/03/04 06:20:18;;;;;;;;;;;;;;;7.25;59.59;100150.41;4409747;32;20052;-92
2021/03/04 06:22:45;;;;;;;;;;;;;;;7.36;59.59;100141.66;4421744;32;20738;-90
2021/03/04 06:25:10;;;;;;;;;;;;;;;7.28;59.59;100147.78;4396919;32;20307;-92
2021/03/04 06:27:38;;;;;;;;;;;;;;;7.46;59.59;100147.56;4423342;32;19997;-90
2021/03/04 06:30:04;;;;;;;;;;;;;;;7.42;59.60;100147.62;4396327;32;20068;-91
2021/03/04 06:32:29;;;;;;;;;;;;;;;7.46;59.59;100150.16;4396199;32;19986;-92
2021/03/04 06:35:01;;;;;;;;;;;;;;;7.45;59.60;100147.59;4401049;32;20038;-91
2021/03/04 06:37:29;;;;;;;;;;;;;;;7.56;59.61;100149.13;4438437;32;20641;-91
2021/03/04 06:39:54;;;;;;;;;;;;;;;7.67;59.61;100144.69;4424084;32;20046;-91
2021/03/04 06:42:19;;;;;;;;;;;;;;;7.72;59.61;100144.63;4411127;32;20024;-90
2021/03/04 06:44:48;;;;;;;;;;;;;;;7.76;59.61;100145.41;4437906;32;19988;-90
2021/03/04 06:47:34;;;;;;;;;;;;;;;8.00;59.63;100137.28;4424393;32;20625;-91
2021/03/04 06:49:59;;;;;;;;;;;;;;;8.00;59.63;100135.53;4437676;32;19965;-90
2021/03/04 06:52:27;;;;;;;;;;;;;;;8.23;59.64;100134.34;4437942;32;20285;-91
2021/03/04 06:54:53;;;;;;;;;;;;;;;8.19;59.64;100130.06;4423827;32;19994;-90
2021/03/04 06:57:19;;;;;;;;;;;;;;;8.19;59.63;100133.53;4411107;32;20471;-91
2021/03/04 06:59:44;;;;;;;;;;;;;;;8.23;59.64;100127.41;4410631;32;20009;-89
2021/03/04 07:02:09;;;;;;;;;;;;;;;8.31;59.65;100130.75;4423398;32;20375;-89
2021/03/04 07:04:35;;;;;;;;;;;;;;;8.27;59.64;100129.06;4423447;32;20030;-89
2021/03/04 07:07:00;;;;;;;;;;;;;;;8.41;59.65;100128.87;4423386;32;20482;-89
2021/03/04 07:09:25;;;;;;;;;;;;;;;8.37;59.65;100124.63;4423479;32;20018;-89
2021/03/04 07:11:51;;;;;;;;;;;;;;;8.57;59.66;100126.88;4410454;32;19981;-89
2021/03/04 07:14:16;;;;;;;;;;;;;;;8.51;59.66;100126.97;4423283;32;20370;-89
2021/03/04 07:16:43;;;;;;;;;;;;;;;8.70;59.67;100117.97;4409925;32;20788;-89
2021/03/04 07:19:09;;;;;;;;;;;;;;;8.92;59.68;100123.62;4410749;32;20006;-89
2021/03/04 07:21:41;;;;;;;;;;;;;;;8.80;59.67;100118.69;4410283;32;19985;-89
2021/03/04 07:24:06;;;;;;;;;;;;;;;8.82;59.68;100120.34;4410462;32;19973;-89
2021/03/04 07:26:32;;;;;;;;;;;;;;;9.11;59.68;100114.59;4423120;32;20052;-89
2021/03/04 07:28:57;;;;;;;;;;;;;;;9.31;59.70;100111.59;4422683;32;19977;-89
2021/03/04 07:31:22;;;;;;;;;;;;;;;9.32;59.70;100110.69;4422926;32;19996;-89
2021/03/04 07:33:48;;;;;;;;;;;;;;;9.47;59.71;100112.97;4422889;32;20001;-89
2021/03/04 07:36:14;;;;;;;;;;;;;;;9.65;59.72;100095.25;4406818;32;89756;-88
2021/03/04 07:38:39;;;;;;;;;;;;;;;9.95;59.74;100098.91;4436363;32;20023;-89
2021/03/04 07:41:08;;;;;;;;;;;;;;;10.19;59.76;100100.03;4410004;32;20028;-90
2021/03/04 07:43:43;;;;;;;;;;;;;;;10.25;59.76;100098.16;4438982;32;19973;-89
2021/03/04 07:46:08;;;;;;;;;;;;;;;10.28;59.75;100092.03;4438720;32;20011;-89
2021/03/04 07:48:33;;;;;;;;;;;;;;;10.65;59.77;100078.94;4423614;32;29361;-90
2021/03/04 07:50:58;;;;;;;;;;;;;;;10.64;59.78;100083.25;4423260;32;31372;-88
2021/03/04 07:53:24;;;;;;;;;;;;;;;10.72;59.78;100077.84;4424169;32;20288;-89
2021/03/04 07:55:50;;;;;;;;;;;;;;;10.77;59.79;100079.44;4424054;32;20373;-87
2021/03/04 07:58:15;;;;;;;;;;;;;;;11.02;59.80;100071.78;4424275;32;20052;-89
2021/03/04 08:00:41;;;;;;;;;;;;;;;11.20;59.80;100070.41;4423831;32;19999;-88
2021/03/04 08:03:06;;;;;;;;;;;;;;;11.34;59.81;100069.97;4424149;32;19993;-86
2021/03/04 08:05:38;;;;;;;;;;;;;;;11.41;59.82;100063.69;4423304;32;29799;-88
2021/03/04 08:08:10;;;;;;;;;;;;;;;11.55;59.83;100065.88;4411357;32;20007;-88
2021/03/04 08:10:42;;;;;;;;;;;;;;;11.64;59.83;100060.38;4424014;32;20471;-89
2021/03/04 08:13:08;;;;;;;;;;;;;;;11.76;59.84;100059.97;4423804;32;20314;-88
2021/03/04 08:15:34;;;;;;;;;;;;;;;12.06;59.86;100057.31;4424004;32;20025;-88
2021/03/04 08:17:59;;;;;;;;;;;;;;;12.35;59.86;100057.19;4438043;32;20045;-86
2021/03/04 08:20:24;;;;;;;;;;;;;;;12.53;59.88;100051.31;4423985;32;20334;-87
2021/03/04 08:22:50;;;;;;;;;;;;;;;12.62;59.89;100041.47;4437750;32;20320;-86
2021/03/04 08:25:19;;;;;;;;;;;;;;;12.87;59.89;100044.91;4438186;32;20007;-85
2021/03/04 08:27:45;;;;;;;;;;;;;;;12.87;59.89;100039.69;4423931;32;20855;-88
2021/03/04 08:30:11;;;;;;;;;;;;;;;13.12;59.91;100024.78;4411133;32;19989;-89
2021/03/04 08:32:36;;;;;;;;;;;;;;;13.16;59.91;100028.97;4424342;32;19979;-89
2021/03/04 08:35:01;;;;;;;;;;;;;;;13.12;59.92;100026.53;4424740;32;19997;-89
2021/03/04 08:37:28;;;;;;;;;;;;;;;13.29;59.92;100029.41;4424054;32;20374;-89
2021/03/04 08:39:58;;;;;;;;;;;;;;;13.29;59.92;100029.41;4439054;32;20481;-89
2021/03/04 08:42:23;;;;;;;;;;;;;;;13.51;59.93;100025.03;4421347;32;19981;-89
2021/03/04 08:44:49;;;;;;;;;;;;;;;13.55;59.93;100024.91;4435580;32;19996;-89
2021/03/04 08:47:15;;;;;;;;;;;;;;;13.64;59.93;100027.16;4420945;32;19985;-89
2021/03/04 08:49:48;;;;;;;;;;;;;;;13.83;59.95;100021.13;4424015;32;20688;-88
2021/03/04 08:52:15;;;;;;;;;;;;;;;13.86;59.95;100028.00;4423450;32;20475;-88
2021/03/04 08:54:47;;;;;;;;;;;;;;;13.90;59.96;100020.88;4423912;32;20471;-88
2021/03/04 08:57:12;;;;;;;;;;;;;;;14.10;59.97;100023.50;4411344;32;20553;-88
2021/03/04 08:59:37;;;;;;;;;;;;;;;14.13;59.97;100028.59;4423357;32;29613;-89
2021/03/04 09:02:12;;;;;;;;;;;;;;;14.14;59.96;100017.22;4411076;32;20518;-88
2021/03/04 09:04:37;;;;;;;;;;;;;;;14.38;59.98;100015.31;4423939;32;19988;-88
2021/03/04 09:07:03;;;;;;;;;;;;;;;14.36;59.98;100004.91;4423182;32;31353;-88
2021/03/04 09:09:29;;;;;;;;;;;;;;;14.51;59.99;100007.81;4411120;32;20542;-88
2021/03/04 09:11:54;;;;;;;;;;;;;;;14.66;60.00;100010.59;4424020;32;19984;-88
2021/03/04 09:14:26;;;;;;;;;;;;;;;14.48;59.99;100003.56;4410909;32;20331;-88
2021/03/04 09:16:51;;;;;;;;;;;;;;;14.32;59.97;99998.12;4438052;32;19995;-88
2021/03/04 09:19:26;;;;;;;;;;;;;;;14.57;59.99;99990.06;4411131;32;19996;-88
2021/03/04 09:21:51;;;;;;;;;;;;;;;14.56;59.99;99995.38;4437637;32;19985;-88
2021/03/04 09:24:16;;;;;;;;;;;;;;;14.51;59.99;99997.34;4423435;32;20345;-88
2021/03/04 09:26:41;;;;;;;;;;;;;;;14.49;59.99;99979.09;4423088;32;22919;-88
2021/03/04 09:29:07;;;;;;;;;;;;;;;14.43;59.98;99984.56;4423112;32;23078;-88
2021/03/04 09:31:32;;;;;;;;;;;;;;;14.40;59.99;99979.44;4410519;32;20035;-88
2021/03/04 09:33:58;;;;;;;;;;;;;;;14.60;59.99;99970.72;4410346;32;23960;-88
2021/03/04 09:36:23;;;;;;;;;;;;;;;14.83;60.00;99967.91;4410819;32;20007;-88
2021/03/04 09:38:52;;;;;;;;;;;;;;;14.92;60.01;99967.50;4410531;32;20756;-89
2021/03/04 09:41:18;;;;;;;;;;;;;;;14.93;60.01;99974.44;4423590;32;20373;-88
2021/03/04 09:43:47;;;;;;;;;;;;;;;14.90;60.01;99968.47;4410609;32;20397;-87
2021/03/04 09:46:13;;;;;;;;;;;;;;;14.76;60.00;99961.25;4410882;32;20007;-88
2021/03/04 09:48:39;;;;;;;;;;;;;;;14.88;60.01;99960.69;4423444;32;19993;-88
2021/03/04 09:51:05;;;;;;;;;;;;;;;15.00;60.01;99960.12;4410784;32;19997;-87
2021/03/04 09:53:30;;;;;;;;;;;;;;;14.95;60.01;99962.13;4410607;32;20019;-88
2021/03/04 09:55:55;;;;;;;;;;;;;;;15.04;60.02;99945.94;4423545;32;20277;-86
2021/03/04 09:58:21;;;;;;;;;;;;;;;15.32;60.04;99960.38;4437686;32;20027;-85
2021/03/04 10:00:54;;;;;;;;;;;;;;;15.53;60.04;99946.22;4410453;32;20392;-85
2021/03/04 10:03:19;;;;;;;;;;;;;;;15.60;60.04;99950.25;4409917;32;20357;-86
2021/03/04 10:05:45;;;;;;;;;;;;;;;15.64;60.05;99945.72;4436644;32;20031;-86
2021/03/04 10:08:10;;;;;;;;;;;;;;;15.70;60.05;99949.81;4410372;32;20026;-86
2021/03/04 10:10:35;;;;;;;;;;;;;;;15.91;60.06;99943.50;4410455;32;19985;-87
2021/03/04 10:13:01;;;;;;;;;;;;;;;16.05;60.07;99946.25;4410525;32;20383;-87
2021/03/04 10:15:29;;;;;;;;;;;;;;;16.16;60.08;99938.69;4410680;32;20348;-87
2021/03/04 10:17:55;;;;;;;;;;;;;;;15.93;60.07;99941.63;4437451;32;19977;-87
2021/03/04 10:20:20;;;;;;;;;;;;;;;16.16;60.08;99938.69;4437210;32;19981;-87
2021/03/04 10:22:46;;;;;;;;;;;;;;;16.31;60.08;99930.91;4423226;32;20034;-88
2021/03/04 10:25:11;;;;;;;;;;;;;;;16.50;60.10;99927.22;4410036;32;25878;-88
2021/03/04 10:27:36;;;;;;;;;;;;;;;16.67;60.10;99925.50;4423259;32;20014;-88
2021/03/04 10:30:03;;;;;;;;;;;;;;;16.83;60.11;99924.59;4423326;32;20046;-88
2021/03/04 10:32:28;;;;;;;;;;;;;;;16.97;60.12;99920.34;4423306;32;20007;-88
2021/03/04 10:34:54;;;;;;;;;;;;;;;16.76;60.10;99915.34;4410203;32;19981;-89
2021/03/04 10:37:19;;;;;;;;;;;;;;;16.78;60.12;99915.25;4409489;32;31426;-88
2021/03/04 10:39:44;;;;;;;;;;;;;;;16.62;60.11;99917.84;4409839;32;31226;-87
2021/03/04 10:42:09;;;;;;;;;;;;;;;16.73;60.11;99918.13;4409705;32;31169;-87
2021/03/04 10:44:35;;;;;;;;;;;;;;;16.85;60.12;99908.75;4422681;32;20355;-87
2021/03/04 10:47:00;;;;;;;;;;;;;;;16.99;60.11;99914.06;4422450;32;20324;-87
2021/03/04 10:49:27;;;;;;;;;;;;;;;17.18;60.13;99909.47;4422761;32;20012;-88
2021/03/04 10:51:53;;;;;;;;;;;;;;;17.39;60.15;99911.81;4410051;32;20432;-87
2021/03/04 10:54:18;;;;;;;;;;;;;;;17.36;60.15;99917.28;4410060;32;19985;-87
2021/03/04 10:56:43;;;;;;;;;;;;;;;17.53;60.15;99903.16;4422579;32;19980;-88
2021/03/04 10:59:08;;;;;;;;;;;;;;;17.53;60.15;99903.16;4410140;32;20020;-87
2021/03/04 11:01:34;;;;;;;;;;;;;;;17.58;60.15;99896.66;4409323;32;29344;-88
2021/03/04 11:03:59;;;;;;;;;;;;;;;17.67;60.16;99892.63;4422873;32;20314;-88
2021/03/04 11:06:24;;;;;;;;;;;;;;;17.65;60.16;99905.03;4435980;32;32633;-87
2021/03/04 11:08:49;;;;;;;;;;;;;;;17.40;60.15;99898.56;4409800;32;20047;-87
2021/03/04 11:11:15;;;;;;;;;;;;;;;17.31;60.15;99893.00;4422566;32;20019;-88
2021/03/04 11:13:40;;;;;;;;;;;;;;;17.33;60.15;99891.97;4409292;32;20047;-87
2021/03/04 11:16:05;;;;;;;;;;;;;;;17.30;60.15;99886.91;4435804;32;20369;-88
2021/03/04 11:18:30;;;;;;;;;;;;;;;17.48;60.15;99884.97;4409879;32;19996;-87
2021/03/04 11:20:55;;;;;;;;;;;;;;;17.60;60.15;99868.47;4422544;32;20593;-88
2021/03/04 11:23:21;;;;;;;;;;;;;;;17.67;60.16;99875.09;4422342;32;21301;-88
2021/03/04 11:25:46;;;;;;;;;;;;;;;17.34;60.14;99872.63;4409703;32;19996;-87
2021/03/04 11:28:11;;;;;;;;;;;;;;;17.47;60.15;99870.13;4422117;32;26297;-88
2021/03/04 11:30:36;;;;;;;;;;;;;;;17.46;60.15;99858.75;4421674;32;31222;-87
2021/03/04 11:33:04;;;;;;;;;;;;;;;17.76;60.17;99864.03;4422377;32;20028;-87
2021/03/04 11:35:30;;;;;;;;;;;;;;;17.83;60.16;99846.06;4422398;32;19992;-87
2021/03/04 11:37:55;;;;;;;;;;;;;;;17.88;60.17;99851.06;4409539;32;19981;-87
2021/03/04 11:40:20;;;;;;;;;;;;;;;17.91;60.16;99832.44;4409388;32;20028;-87
2021/03/04 11:42:45;;;;;;;;;;;;;;;17.96;60.17;99833.84;4422374;32;20037;-87
2021/03/04 11:45:11;;;;;;;;;;;;;;;17.83;60.17;99832.91;4422379;32;20052;-87
2021/03/04 11:47:36;;;;;;;;;;;;;;;17.99;60.19;99830.19;4436368;32;20011;-87
2021/03/04 11:50:01;;;;;;;;;;;;;;;17.74;60.17;99822.91;4422066;32;20044;-86
2021/03/04 11:52:26;;;;;;;;;;;;;;;17.58;60.16;99825.59;4408935;32;24605;-87
2021/03/04 11:54:52;;;;;;;;;;;;;;;17.48;60.15;99819.16;4421527;32;30613;-87
2021/03/04 11:57:17;;;;;;;;;;;;;;;17.60;60.16;99821.09;4421772;32;20866;-87
2021/03/04 11:59:42;;;;;;;;;;;;;;;17.34;60.14;99821.78;4409211;32;20015;-86
2021/03/04 12:02:07;;;;;;;;;;;;;;;17.25;60.14;99824.94;4408521;32;33439;-88
2021/03/04 12:04:33;;;;;;;;;;;;;;;17.36;60.15;99818.13;4409036;32;20016;-88
2021/03/04 12:06:58;;;;;;;;;;;;;;;17.51;60.15;99811.13;4409368;32;20024;-88
2021/03/04 12:09:23;;;;;;;;;;;;;;;17.46;60.15;99803.47;4436020;32;20012;-88
2021/03/04 12:11:49;;;;;;;;;;;;;;;17.50;60.15;99804.13;4436073;32;20330;-88
2021/03/04 12:14:14;;;;;;;;;;;;;;;17.59;60.16;99806.25;4421847;32;20027;-87
2021/03/04 12:16:40;;;;;;;;;;;;;;;17.54;60.16;99795.16;4435889;32;19973;-88
2021/03/04 12:19:05;;;;;;;;;;;;;;;17.66;60.16;99790.91;4421226;32;19981;-88
2021/03/04 12:21:31;;;;;;;;;;;;;;;17.71;60.17;99789.72;4409094;32;20021;-88
2021/03/04 12:23:56;;;;;;;;;;;;;;;17.79;60.17;99789.28;4421761;32;20246;-87
2021/03/04 12:26:21;;;;;;;;;;;;;;;17.62;60.17;99781.50;4421108;32;20344;-89
2021/03/04 12:28:46;;;;;;;;;;;;;;;17.54;60.16;99776.72;4424203;32;20001;-87
2021/03/04 12:31:12;;;;;;;;;;;;;;;17.65;60.16;99783.97;4438249;32;20003;-87
2021/03/04 12:33:37;;;;;;;;;;;;;;;17.65;60.17;99776.91;4410570;32;23820;-88
2021/03/04 12:36:02;;;;;;;;;;;;;;;17.85;60.18;99775.72;4424076;32;20021;-88
2021/03/04 12:38:28;;;;;;;;;;;;;;;17.85;60.18;99782.78;4423934;32;20028;-88
2021/03/04 12:40:53;;;;;;;;;;;;;;;17.90;60.17;99778.06;4411226;32;20035;-87